sensor_id;sensor_type;location;lat;lon;timestamp;P1;durP1;ratioP1;P2;durP2;ratioP2
16600;SDS011;34891;48.164;11.572;2022-11-15T00:04:22;8.88;;;3.15;;
16600;SDS011;34891;48.164;11.572;2022-11-15T00:09:24;4.07;;;2.33;;
16600;SDS011;34891;48.164;11.572;2022-11-15T00:14:29;6.75;;;2.92;;
16600;SDS011;34891;48.164;11.572;2022-11-15T00:19:33;5.30;;;2.35;;
16600;SDS011;34891;48.164;11.572;2022-11-15T00:24:36;3.95;;;2.45;;
16600;SDS011;34891;48.164;11.572;2022-11-15T00:29:39;5.57;;;3.03;;
16600;SDS011;34891;48.164;11.572;2022-11-15T00:34:45;5.07;;;2.50;;
16600;SDS011;34891;48.164;11.572;2022-11-15T00:39:48;5.53;;;2.60;;
16600;SDS011;34891;48.164;11.572;2022-11-15T00:44:51;4.68;;;2.28;;
16600;SDS011;34891;48.164;11.572;2022-11-15T00:49:55;6.22;;;2.42;;
16600;SDS011;34891;48.164;11.572;2022-11-15T00:55:00;3.42;;;1.70;;
16600;SDS011;34891;48.164;11.572;2022-11-15T01:00:03;3.65;;;1.85;;
16600;SDS011;34891;48.164;11.572;2022-11-15T01:05:07;6.63;;;2.80;;
16600;SDS011;34891;48.164;11.572;2022-11-15T01:10:10;5.05;;;1.95;;
16600;SDS011;34891;48.164;11.572;2022-11-15T01:15:12;4.72;;;1.90;;
16600;SDS011;34891;48.164;11.572;2022-11-15T01:20:17;2.47;;;1.70;;
16600;SDS011;34891;48.164;11.572;2022-11-15T01:25:20;1.85;;;1.25;;
16600;SDS011;34891;48.164;11.572;2022-11-15T01:30:23;3.92;;;2.17;;
16600;SDS011;34891;48.164;11.572;2022-11-15T01:35:27;2.40;;;1.45;;
16600;SDS011;34891;48.164;11.572;2022-11-15T01:40:30;2.17;;;1.38;;
16600;SDS011;34891;48.164;11.572;2022-11-15T01:50:38;1.88;;;0.93;;
16600;SDS011;34891;48.164;11.572;2022-11-15T01:55:41;1.05;;;0.75;;
16600;SDS011;34891;48.164;11.572;2022-11-15T02:00:43;5.57;;;2.60;;
16600;SDS011;34891;48.164;11.572;2022-11-15T02:05:47;4.55;;;2.20;;
16600;SDS011;34891;48.164;11.572;2022-11-15T02:10:51;7.63;;;2.53;;
16600;SDS011;34891;48.164;11.572;2022-11-15T02:15:58;4.55;;;2.60;;
16600;SDS011;34891;48.164;11.572;2022-11-15T02:26:37;6.53;;;2.38;;
16600;SDS011;34891;48.164;11.572;2022-11-15T02:31:48;5.18;;;2.38;;
16600;SDS011;34891;48.164;11.572;2022-11-15T02:36:55;5.85;;;2.45;;
16600;SDS011;34891;48.164;11.572;2022-11-15T02:42:01;4.80;;;2.15;;
16600;SDS011;34891;48.164;11.572;2022-11-15T02:47:07;5.68;;;2.58;;
16600;SDS011;34891;48.164;11.572;2022-11-15T02:52:17;4.38;;;2.38;;
16600;SDS011;34891;48.164;11.572;2022-11-15T02:57:23;6.70;;;2.50;;
16600;SDS011;34891;48.164;11.572;2022-11-15T03:02:37;4.03;;;2.05;;
16600;SDS011;34891;48.164;11.572;2022-11-15T03:07:43;5.82;;;2.05;;
16600;SDS011;34891;48.164;11.572;2022-11-15T03:12:49;3.03;;;1.73;;
16600;SDS011;34891;48.164;11.572;2022-11-15T03:18:06;3.08;;;1.65;;
16600;SDS011;34891;48.164;11.572;2022-11-15T03:23:10;1.98;;;0.93;;
16600;SDS011;34891;48.164;11.572;2022-11-15T03:28:15;5.47;;;1.13;;
16600;SDS011;34891;48.164;11.572;2022-11-15T03:33:20;1.33;;;0.90;;
16600;SDS011;34891;48.164;11.572;2022-11-15T03:38:24;1.58;;;0.73;;
16600;SDS011;34891;48.164;11.572;2022-11-15T03:43:30;3.90;;;1.75;;
16600;SDS011;34891;48.164;11.572;2022-11-15T03:48:39;1.85;;;1.23;;
16600;SDS011;34891;48.164;11.572;2022-11-15T03:53:44;3.58;;;1.73;;
16600;SDS011;34891;48.164;11.572;2022-11-15T03:58:47;3.78;;;1.70;;
16600;SDS011;34891;48.164;11.572;2022-11-15T04:03:51;4.28;;;2.00;;
16600;SDS011;34891;48.164;11.572;2022-11-15T04:08:53;3.50;;;1.95;;
16600;SDS011;34891;48.164;11.572;2022-11-15T04:13:56;3.70;;;1.95;;
16600;SDS011;34891;48.164;11.572;2022-11-15T04:19:00;3.83;;;1.80;;
16600;SDS011;34891;48.164;11.572;2022-11-15T04:24:20;2.20;;;0.95;;
16600;SDS011;34891;48.164;11.572;2022-11-15T04:29:22;3.10;;;1.38;;
16600;SDS011;34891;48.164;11.572;2022-11-15T04:34:38;3.80;;;1.77;;
16600;SDS011;34891;48.164;11.572;2022-11-15T04:39:41;2.70;;;1.42;;
16600;SDS011;34891;48.164;11.572;2022-11-15T04:44:45;4.38;;;1.83;;
16600;SDS011;34891;48.164;11.572;2022-11-15T04:49:49;2.23;;;1.43;;
16600;SDS011;34891;48.164;11.572;2022-11-15T04:54:52;2.70;;;1.63;;
16600;SDS011;34891;48.164;11.572;2022-11-15T04:59:55;3.10;;;1.13;;
16600;SDS011;34891;48.164;11.572;2022-11-15T05:04:59;1.92;;;1.02;;
16600;SDS011;34891;48.164;11.572;2022-11-15T05:10:01;2.97;;;1.60;;
16600;SDS011;34891;48.164;11.572;2022-11-15T05:15:05;3.97;;;1.77;;
16600;SDS011;34891;48.164;11.572;2022-11-15T05:20:09;1.67;;;0.90;;
16600;SDS011;34891;48.164;11.572;2022-11-15T05:25:12;2.65;;;1.50;;
16600;SDS011;34891;48.164;11.572;2022-11-15T05:30:17;0.55;;;0.50;;
16600;SDS011;34891;48.164;11.572;2022-11-15T05:35:22;2.40;;;0.70;;
16600;SDS011;34891;48.164;11.572;2022-11-15T05:40:29;1.27;;;0.82;;
16600;SDS011;34891;48.164;11.572;2022-11-15T05:45:32;1.92;;;1.05;;
16600;SDS011;34891;48.164;11.572;2022-11-15T05:50:38;1.95;;;1.20;;
16600;SDS011;34891;48.164;11.572;2022-11-15T05:55:43;3.78;;;1.75;;
16600;SDS011;34891;48.164;11.572;2022-11-15T06:00:46;3.45;;;1.60;;
16600;SDS011;34891;48.164;11.572;2022-11-15T06:05:50;4.40;;;1.80;;
16600;SDS011;34891;48.164;11.572;2022-11-15T06:10:53;2.47;;;1.38;;
16600;SDS011;34891;48.164;11.572;2022-11-15T06:15:55;2.53;;;1.10;;
16600;SDS011;34891;48.164;11.572;2022-11-15T06:20:59;3.72;;;1.70;;
16600;SDS011;34891;48.164;11.572;2022-11-15T06:26:06;7.40;;;1.83;;
16600;SDS011;34891;48.164;11.572;2022-11-15T06:31:09;6.75;;;2.17;;
16600;SDS011;34891;48.164;11.572;2022-11-15T06:36:14;5.07;;;1.63;;
16600;SDS011;34891;48.164;11.572;2022-11-15T06:41:18;3.17;;;1.73;;
16600;SDS011;34891;48.164;11.572;2022-11-15T06:46:22;3.75;;;1.33;;
16600;SDS011;34891;48.164;11.572;2022-11-15T06:51:26;2.50;;;1.45;;
16600;SDS011;34891;48.164;11.572;2022-11-15T06:56:28;3.58;;;1.58;;
16600;SDS011;34891;48.164;11.572;2022-11-15T07:01:31;5.95;;;1.90;;
16600;SDS011;34891;48.164;11.572;2022-11-15T07:06:35;2.42;;;1.05;;
16600;SDS011;34891;48.164;11.572;2022-11-15T07:11:38;7.78;;;2.17;;
16600;SDS011;34891;48.164;11.572;2022-11-15T07:16:40;2.75;;;1.92;;
16600;SDS011;34891;48.164;11.572;2022-11-15T07:21:45;3.92;;;2.20;;
16600;SDS011;34891;48.164;11.572;2022-11-15T07:26:47;9.18;;;2.45;;
16600;SDS011;34891;48.164;11.572;2022-11-15T07:31:50;6.22;;;2.55;;
16600;SDS011;34891;48.164;11.572;2022-11-15T07:36:54;4.63;;;2.50;;
16600;SDS011;34891;48.164;11.572;2022-11-15T07:41:57;5.63;;;2.35;;
16600;SDS011;34891;48.164;11.572;2022-11-15T07:47:14;7.82;;;2.65;;
16600;SDS011;34891;48.164;11.572;2022-11-15T07:52:18;10.02;;;2.33;;
16600;SDS011;34891;48.164;11.572;2022-11-15T07:57:20;3.88;;;2.63;;
16600;SDS011;34891;48.164;11.572;2022-11-15T08:02:23;4.93;;;2.47;;
16600;SDS011;34891;48.164;11.572;2022-11-15T08:07:32;9.43;;;2.92;;
16600;SDS011;34891;48.164;11.572;2022-11-15T08:12:36;10.20;;;3.50;;
16600;SDS011;34891;48.164;11.572;2022-11-15T08:17:38;5.85;;;3.10;;
16600;SDS011;34891;48.164;11.572;2022-11-15T08:22:42;6.95;;;3.03;;
16600;SDS011;34891;48.164;11.572;2022-11-15T08:27:50;6.18;;;2.88;;
16600;SDS011;34891;48.164;11.572;2022-11-15T08:32:53;5.13;;;3.25;;
16600;SDS011;34891;48.164;11.572;2022-11-15T08:37:59;6.57;;;3.15;;
16600;SDS011;34891;48.164;11.572;2022-11-15T08:43:02;8.25;;;4.65;;
16600;SDS011;34891;48.164;11.572;2022-11-15T08:48:05;11.20;;;4.35;;
16600;SDS011;34891;48.164;11.572;2022-11-15T08:53:09;6.45;;;4.00;;
16600;SDS011;34891;48.164;11.572;2022-11-15T08:58:17;7.03;;;3.97;;
16600;SDS011;34891;48.164;11.572;2022-11-15T09:03:21;5.10;;;3.80;;
16600;SDS011;34891;48.164;11.572;2022-11-15T09:08:26;4.65;;;3.53;;
16600;SDS011;34891;48.164;11.572;2022-11-15T09:13:51;5.47;;;3.30;;
16600;SDS011;34891;48.164;11.572;2022-11-15T09:18:53;5.70;;;3.80;;
16600;SDS011;34891;48.164;11.572;2022-11-15T09:23:58;5.65;;;4.20;;
16600;SDS011;34891;48.164;11.572;2022-11-15T09:29:01;6.25;;;3.60;;
16600;SDS011;34891;48.164;11.572;2022-11-15T09:34:03;5.47;;;3.67;;
16600;SDS011;34891;48.164;11.572;2022-11-15T09:39:08;4.75;;;3.60;;
16600;SDS011;34891;48.164;11.572;2022-11-15T09:44:20;3.88;;;3.20;;
16600;SDS011;34891;48.164;11.572;2022-11-15T09:49:29;5.55;;;3.05;;
16600;SDS011;34891;48.164;11.572;2022-11-15T09:54:34;8.27;;;4.03;;
16600;SDS011;34891;48.164;11.572;2022-11-15T09:59:58;7.63;;;4.22;;
16600;SDS011;34891;48.164;11.572;2022-11-15T10:05:25;8.20;;;4.43;;
16600;SDS011;34891;48.164;11.572;2022-11-15T10:10:31;7.30;;;3.88;;
16600;SDS011;34891;48.164;11.572;2022-11-15T10:15:36;6.18;;;3.83;;
16600;SDS011;34891;48.164;11.572;2022-11-15T10:20:42;4.13;;;2.88;;
16600;SDS011;34891;48.164;11.572;2022-11-15T10:25:47;4.10;;;3.00;;
16600;SDS011;34891;48.164;11.572;2022-11-15T10:30:53;3.38;;;2.53;;
16600;SDS011;34891;48.164;11.572;2022-11-15T10:41:15;3.28;;;2.63;;
16600;SDS011;34891;48.164;11.572;2022-11-15T10:46:19;3.38;;;2.83;;
16600;SDS011;34891;48.164;11.572;2022-11-15T10:51:42;12.27;;;6.55;;
16600;SDS011;34891;48.164;11.572;2022-11-15T10:56:49;4.18;;;2.55;;
16600;SDS011;34891;48.164;11.572;2022-11-15T11:01:53;11.13;;;3.95;;
16600;SDS011;34891;48.164;11.572;2022-11-15T11:06:56;8.07;;;3.85;;
16600;SDS011;34891;48.164;11.572;2022-11-15T11:12:01;4.25;;;2.50;;
16600;SDS011;34891;48.164;11.572;2022-11-15T11:17:12;27.58;;;13.88;;
16600;SDS011;34891;48.164;11.572;2022-11-15T11:22:20;5.72;;;2.83;;
16600;SDS011;34891;48.164;11.572;2022-11-15T11:27:29;3.03;;;2.40;;
16600;SDS011;34891;48.164;11.572;2022-11-15T11:32:44;2.55;;;2.35;;
16600;SDS011;34891;48.164;11.572;2022-11-15T11:37:58;2.75;;;2.53;;
16600;SDS011;34891;48.164;11.572;2022-11-15T11:43:08;4.95;;;2.63;;
16600;SDS011;34891;48.164;11.572;2022-11-15T11:48:14;3.28;;;2.60;;
16600;SDS011;34891;48.164;11.572;2022-11-15T11:53:24;4.45;;;2.67;;
16600;SDS011;34891;48.164;11.572;2022-11-15T11:58:33;2.80;;;2.50;;
16600;SDS011;34891;48.164;11.572;2022-11-15T12:03:38;2.90;;;2.60;;
16600;SDS011;34891;48.164;11.572;2022-11-15T12:08:43;2.88;;;2.50;;
16600;SDS011;34891;48.164;11.572;2022-11-15T12:13:50;2.88;;;2.20;;
16600;SDS011;34891;48.164;11.572;2022-11-15T12:18:57;2.80;;;2.30;;
16600;SDS011;34891;48.164;11.572;2022-11-15T12:24:02;4.00;;;2.50;;
16600;SDS011;34891;48.164;11.572;2022-11-15T12:29:10;4.45;;;2.28;;
16600;SDS011;34891;48.164;11.572;2022-11-15T12:34:28;4.68;;;2.40;;
16600;SDS011;34891;48.164;11.572;2022-11-15T12:44:58;2.40;;;1.70;;
16600;SDS011;34891;48.164;11.572;2022-11-15T12:50:01;3.42;;;2.25;;
16600;SDS011;34891;48.164;11.572;2022-11-15T13:10:59;2.40;;;2.20;;
16600;SDS011;34891;48.164;11.572;2022-11-15T13:16:22;4.03;;;2.40;;
16600;SDS011;34891;48.164;11.572;2022-11-15T13:26:46;3.97;;;2.17;;
16600;SDS011;34891;48.164;11.572;2022-11-15T13:31:49;2.85;;;2.10;;
16600;SDS011;34891;48.164;11.572;2022-11-15T13:37:01;3.78;;;2.25;;
16600;SDS011;34891;48.164;11.572;2022-11-15T13:42:11;4.78;;;2.85;;
16600;SDS011;34891;48.164;11.572;2022-11-15T13:47:19;5.75;;;2.60;;
16600;SDS011;34891;48.164;11.572;2022-11-15T13:52:22;5.70;;;2.40;;
16600;SDS011;34891;48.164;11.572;2022-11-15T13:57:29;8.77;;;2.83;;
16600;SDS011;34891;48.164;11.572;2022-11-15T14:02:34;4.70;;;2.60;;
16600;SDS011;34891;48.164;11.572;2022-11-15T14:07:37;7.60;;;2.17;;
16600;SDS011;34891;48.164;11.572;2022-11-15T14:12:51;6.45;;;2.75;;
16600;SDS011;34891;48.164;11.572;2022-11-15T14:17:54;3.88;;;2.38;;
16600;SDS011;34891;48.164;11.572;2022-11-15T14:22:57;5.87;;;2.43;;
16600;SDS011;34891;48.164;11.572;2022-11-15T14:28:15;6.72;;;2.95;;
16600;SDS011;34891;48.164;11.572;2022-11-15T14:33:29;6.45;;;3.10;;
16600;SDS011;34891;48.164;11.572;2022-11-15T14:38:32;5.00;;;3.20;;
16600;SDS011;34891;48.164;11.572;2022-11-15T14:43:37;6.57;;;3.25;;
16600;SDS011;34891;48.164;11.572;2022-11-15T14:48:40;6.00;;;3.35;;
16600;SDS011;34891;48.164;11.572;2022-11-15T14:53:43;7.05;;;3.83;;
16600;SDS011;34891;48.164;11.572;2022-11-15T14:58:47;6.60;;;3.50;;
16600;SDS011;34891;48.164;11.572;2022-11-15T15:03:50;6.93;;;3.22;;
16600;SDS011;34891;48.164;11.572;2022-11-15T15:08:55;8.25;;;3.92;;
16600;SDS011;34891;48.164;11.572;2022-11-15T15:13:59;9.40;;;3.85;;
16600;SDS011;34891;48.164;11.572;2022-11-15T15:19:02;8.10;;;3.78;;
16600;SDS011;34891;48.164;11.572;2022-11-15T15:24:05;8.50;;;4.00;;
16600;SDS011;34891;48.164;11.572;2022-11-15T15:29:09;9.65;;;4.20;;
16600;SDS011;34891;48.164;11.572;2022-11-15T15:34:12;9.68;;;4.30;;
16600;SDS011;34891;48.164;11.572;2022-11-15T15:39:19;7.78;;;4.30;;
16600;SDS011;34891;48.164;11.572;2022-11-15T15:44:23;8.65;;;4.40;;
16600;SDS011;34891;48.164;11.572;2022-11-15T15:54:29;9.20;;;4.20;;
16600;SDS011;34891;48.164;11.572;2022-11-15T15:59:33;12.27;;;4.80;;
16600;SDS011;34891;48.164;11.572;2022-11-15T16:04:35;12.45;;;4.80;;
16600;SDS011;34891;48.164;11.572;2022-11-15T16:09:38;12.77;;;5.10;;
16600;SDS011;34891;48.164;11.572;2022-11-15T16:14:59;8.95;;;4.82;;
16600;SDS011;34891;48.164;11.572;2022-11-15T16:20:03;7.30;;;4.07;;
16600;SDS011;34891;48.164;11.572;2022-11-15T16:25:06;10.50;;;4.90;;
16600;SDS011;34891;48.164;11.572;2022-11-15T16:30:11;10.20;;;4.65;;
16600;SDS011;34891;48.164;11.572;2022-11-15T16:35:19;10.48;;;4.88;;
16600;SDS011;34891;48.164;11.572;2022-11-15T16:40:24;12.50;;;5.22;;
16600;SDS011;34891;48.164;11.572;2022-11-15T16:45:29;9.90;;;5.00;;
16600;SDS011;34891;48.164;11.572;2022-11-15T16:50:33;15.60;;;6.22;;
16600;SDS011;34891;48.164;11.572;2022-11-15T16:55:41;12.23;;;5.57;;
16600;SDS011;34891;48.164;11.572;2022-11-15T17:00:45;13.27;;;5.47;;
16600;SDS011;34891;48.164;11.572;2022-11-15T17:05:51;14.32;;;5.65;;
16600;SDS011;34891;48.164;11.572;2022-11-15T17:10:54;12.75;;;5.45;;
16600;SDS011;34891;48.164;11.572;2022-11-15T17:16:03;16.05;;;6.05;;
16600;SDS011;34891;48.164;11.572;2022-11-15T17:21:07;12.75;;;5.38;;
16600;SDS011;34891;48.164;11.572;2022-11-15T17:26:10;13.37;;;5.93;;
16600;SDS011;34891;48.164;11.572;2022-11-15T17:31:31;13.63;;;5.95;;
16600;SDS011;34891;48.164;11.572;2022-11-15T17:36:35;13.73;;;6.13;;
16600;SDS011;34891;48.164;11.572;2022-11-15T17:41:37;17.08;;;6.20;;
16600;SDS011;34891;48.164;11.572;2022-11-15T17:46:51;11.43;;;5.53;;
16600;SDS011;34891;48.164;11.572;2022-11-15T17:51:54;13.73;;;5.75;;
16600;SDS011;34891;48.164;11.572;2022-11-15T17:56:57;17.88;;;5.88;;
16600;SDS011;34891;48.164;11.572;2022-11-15T18:02:01;14.52;;;6.28;;
16600;SDS011;34891;48.164;11.572;2022-11-15T18:07:03;14.65;;;6.35;;
16600;SDS011;34891;48.164;11.572;2022-11-15T18:12:06;17.90;;;6.20;;
16600;SDS011;34891;48.164;11.572;2022-11-15T18:17:10;15.90;;;6.13;;
16600;SDS011;34891;48.164;11.572;2022-11-15T18:22:13;15.02;;;6.38;;
16600;SDS011;34891;48.164;11.572;2022-11-15T18:27:15;12.38;;;6.03;;
16600;SDS011;34891;48.164;11.572;2022-11-15T18:32:19;12.32;;;5.60;;
16600;SDS011;34891;48.164;11.572;2022-11-15T18:37:22;12.32;;;7.20;;
16600;SDS011;34891;48.164;11.572;2022-11-15T18:42:24;14.82;;;6.35;;
16600;SDS011;34891;48.164;11.572;2022-11-15T18:47:28;16.48;;;7.68;;
16600;SDS011;34891;48.164;11.572;2022-11-15T18:52:32;14.93;;;6.53;;
16600;SDS011;34891;48.164;11.572;2022-11-15T18:57:35;10.85;;;5.30;;
16600;SDS011;34891;48.164;11.572;2022-11-15T19:02:39;17.05;;;6.60;;
16600;SDS011;34891;48.164;11.572;2022-11-15T19:07:41;14.05;;;6.57;;
16600;SDS011;34891;48.164;11.572;2022-11-15T19:12:44;14.50;;;7.57;;
16600;SDS011;34891;48.164;11.572;2022-11-15T19:17:54;18.42;;;7.28;;
16600;SDS011;34891;48.164;11.572;2022-11-15T19:22:57;16.88;;;5.15;;
16600;SDS011;34891;48.164;11.572;2022-11-15T19:27:59;13.35;;;5.60;;
16600;SDS011;34891;48.164;11.572;2022-11-15T19:33:03;17.38;;;7.15;;
16600;SDS011;34891;48.164;11.572;2022-11-15T19:38:08;23.85;;;7.65;;
16600;SDS011;34891;48.164;11.572;2022-11-15T19:43:11;20.75;;;8.23;;
16600;SDS011;34891;48.164;11.572;2022-11-15T19:48:15;11.63;;;4.28;;
16600;SDS011;34891;48.164;11.572;2022-11-15T19:53:18;20.02;;;7.50;;
16600;SDS011;34891;48.164;11.572;2022-11-15T19:58:22;12.75;;;5.85;;
16600;SDS011;34891;48.164;11.572;2022-11-15T20:03:26;20.00;;;7.90;;
16600;SDS011;34891;48.164;11.572;2022-11-15T20:08:29;33.05;;;10.75;;
16600;SDS011;34891;48.164;11.572;2022-11-15T20:13:33;22.73;;;7.82;;
16600;SDS011;34891;48.164;11.572;2022-11-15T20:18:37;12.40;;;4.20;;
16600;SDS011;34891;48.164;11.572;2022-11-15T20:23:40;6.55;;;3.00;;
16600;SDS011;34891;48.164;11.572;2022-11-15T20:28:43;17.30;;;5.78;;
16600;SDS011;34891;48.164;11.572;2022-11-15T20:33:47;10.40;;;4.50;;
16600;SDS011;34891;48.164;11.572;2022-11-15T20:38:50;7.53;;;3.03;;
16600;SDS011;34891;48.164;11.572;2022-11-15T20:43:52;12.50;;;5.07;;
16600;SDS011;34891;48.164;11.572;2022-11-15T20:48:57;10.98;;;4.80;;
16600;SDS011;34891;48.164;11.572;2022-11-15T20:54:00;13.30;;;6.18;;
16600;SDS011;34891;48.164;11.572;2022-11-15T20:59:04;12.38;;;5.25;;
16600;SDS011;34891;48.164;11.572;2022-11-15T21:09:12;9.75;;;5.00;;
16600;SDS011;34891;48.164;11.572;2022-11-15T21:14:32;11.02;;;5.10;;
16600;SDS011;34891;48.164;11.572;2022-11-15T21:19:35;7.95;;;3.05;;
16600;SDS011;34891;48.164;11.572;2022-11-15T21:24:39;14.75;;;4.95;;
16600;SDS011;34891;48.164;11.572;2022-11-15T21:29:43;13.13;;;5.25;;
16600;SDS011;34891;48.164;11.572;2022-11-15T21:34:49;14.15;;;6.05;;
16600;SDS011;34891;48.164;11.572;2022-11-15T21:39:54;8.40;;;4.55;;
16600;SDS011;34891;48.164;11.572;2022-11-15T21:44:56;10.27;;;4.88;;
16600;SDS011;34891;48.164;11.572;2022-11-15T21:49:59;10.52;;;4.03;;
16600;SDS011;34891;48.164;11.572;2022-11-15T21:55:04;17.67;;;7.22;;
16600;SDS011;34891;48.164;11.572;2022-11-15T22:00:07;17.02;;;6.97;;
16600;SDS011;34891;48.164;11.572;2022-11-15T22:05:27;13.98;;;6.30;;
16600;SDS011;34891;48.164;11.572;2022-11-15T22:10:31;17.02;;;6.68;;
16600;SDS011;34891;48.164;11.572;2022-11-15T22:15:34;7.05;;;3.05;;
16600;SDS011;34891;48.164;11.572;2022-11-15T22:20:37;6.82;;;2.53;;
16600;SDS011;34891;48.164;11.572;2022-11-15T22:25:48;12.57;;;5.15;;
16600;SDS011;34891;48.164;11.572;2022-11-15T22:30:52;20.02;;;5.80;;
16600;SDS011;34891;48.164;11.572;2022-11-15T22:35:55;14.30;;;5.45;;
16600;SDS011;34891;48.164;11.572;2022-11-15T22:40:59;15.10;;;6.93;;
16600;SDS011;34891;48.164;11.572;2022-11-15T22:46:03;15.45;;;5.05;;
16600;SDS011;34891;48.164;11.572;2022-11-15T22:51:05;12.15;;;5.20;;
16600;SDS011;34891;48.164;11.572;2022-11-15T22:56:10;26.70;;;8.75;;
16600;SDS011;34891;48.164;11.572;2022-11-15T23:01:20;12.98;;;4.22;;
16600;SDS011;34891;48.164;11.572;2022-11-15T23:06:23;7.93;;;2.25;;
16600;SDS011;34891;48.164;11.572;2022-11-15T23:11:27;10.80;;;4.93;;
16600;SDS011;34891;48.164;11.572;2022-11-15T23:16:48;7.85;;;3.92;;
16600;SDS011;34891;48.164;11.572;2022-11-15T23:21:52;9.77;;;4.20;;
16600;SDS011;34891;48.164;11.572;2022-11-15T23:27:14;13.25;;;5.18;;
16600;SDS011;34891;48.164;11.572;2022-11-15T23:32:20;10.95;;;4.60;;
16600;SDS011;34891;48.164;11.572;2022-11-15T23:37:50;13.45;;;4.55;;
16600;SDS011;34891;48.164;11.572;2022-11-15T23:42:54;10.30;;;4.50;;
16600;SDS011;34891;48.164;11.572;2022-11-15T23:47:58;7.80;;;3.80;;
16600;SDS011;34891;48.164;11.572;2022-11-15T23:53:07;11.25;;;4.88;;
16600;SDS011;34891;48.164;11.572;2022-11-15T23:58:11;10.63;;;4.22;;
